Current Weather

Lamerd

Lamerd, Iran (OISR)

Report from: Tuesday, August 16, 2022 6:00 AM UTC
Current time: Tuesday, August 16, 2022 6:49 AM UTC

Nearby weather
Weather history
Weather forecast

Temperature41.0°C (105.8°F)
Heat index38.9°C (102.0°F)
Dew point8.0°C (46.4°F)
Winds Calm
Clouds Sky clear
Altimeter29.61 in.Hg (1003 mB)
Relative humidity14 %
Density altitude3,423 ft. (1,043 m)
Remarks Ceiling and visibility OK
No significant changes expected in the next two hours
Flight conditions Visual Meteorological Conditions
Raw dataOISR 160600Z 00000KT CAVOK 41/08 Q1002 A2961 NOSIG
An error has occurred. This application may no longer respond until reloaded. Reload 🗙